createdAt,value
2019-03-31T00:00:36.796Z,46.78
2019-03-31T00:03:05.183Z,46.80
2019-03-31T00:05:36.965Z,46.77
2019-03-31T00:08:03.719Z,46.75
2019-03-31T00:10:32.126Z,46.79
2019-03-31T00:13:00.521Z,46.89
2019-03-31T00:15:28.912Z,46.94
2019-03-31T10:18:35.718Z,37.10
2019-03-31T10:21:04.194Z,36.42
2019-03-31T10:23:32.563Z,35.49
2019-03-31T10:26:00.957Z,35.58
2019-03-31T10:28:29.331Z,35.33
2019-03-31T10:30:57.826Z,35.67
2019-03-31T10:33:26.235Z,35.61
2019-03-31T10:35:54.617Z,35.98
2019-03-31T10:38:22.990Z,36.46
2019-03-31T10:40:51.370Z,36.68
2019-03-31T10:43:19.765Z,36.99
2019-03-31T10:45:48.220Z,37.25
2019-03-31T10:48:20.986Z,37.41
2019-03-31T10:50:48.013Z,37.26
2019-03-31T10:53:16.369Z,37.34
2019-03-31T10:55:44.756Z,37.59
2019-03-31T10:58:13.150Z,37.79
2019-03-31T11:00:44.454Z,37.88
2019-03-31T11:03:11.617Z,38.00
2019-03-31T11:05:40.350Z,38.12
2019-03-31T11:08:08.748Z,38.22
2019-03-31T11:10:37.121Z,38.27
2019-03-31T11:13:05.671Z,38.46
2019-03-31T11:15:34.330Z,38.60
2019-03-31T11:18:02.741Z,38.77
2019-03-31T11:20:31.090Z,38.86
2019-03-31T11:23:09.586Z,39.04
2019-03-31T11:25:38.031Z,39.25
2019-03-31T11:28:06.427Z,39.21
2019-03-31T11:30:34.813Z,38.94
2019-03-31T11:33:03.196Z,39.03
2019-03-31T11:35:31.569Z,39.42
2019-03-31T11:37:59.945Z,39.67
2019-03-31T11:40:28.315Z,39.71
2019-03-31T11:42:56.701Z,39.82
2019-03-31T11:45:25.069Z,39.86
2019-03-31T11:47:53.451Z,39.97
2019-03-31T11:50:21.829Z,40.01
2019-03-31T11:52:50.212Z,40.17
2019-03-31T11:55:18.582Z,40.42
2019-03-31T11:57:46.968Z,40.34
2019-03-31T12:00:18.022Z,40.48
2019-03-31T12:02:46.410Z,40.70
2019-03-31T12:05:14.950Z,40.52
2019-03-31T12:07:47.100Z,40.59
2019-03-31T12:10:13.835Z,40.58
2019-03-31T12:12:42.214Z,40.57
2019-03-31T12:15:11.879Z,40.99
2019-03-31T12:17:40.952Z,41.09
2019-03-31T12:20:09.691Z,41.62
2019-03-31T12:22:38.089Z,40.52
2019-03-31T12:25:08.182Z,40.39
2019-03-31T12:27:36.590Z,40.46
2019-03-31T12:30:08.615Z,40.79
2019-03-31T12:32:38.582Z,40.31
2019-03-31T12:35:10.187Z,40.40
2019-03-31T12:37:42.659Z,40.20
2019-03-31T12:40:15.118Z,40.27
2019-03-31T12:42:41.818Z,40.78
2019-03-31T12:45:11.314Z,40.04
2019-03-31T12:47:39.695Z,39.74
2019-03-31T12:50:08.237Z,39.66
2019-03-31T12:52:46.508Z,39.60
2019-03-31T12:55:06.911Z,40.06
2019-03-31T12:57:35.279Z,39.57
2019-03-31T13:00:05.106Z,39.62
2019-03-31T13:02:33.482Z,39.62
2019-03-31T13:05:01.887Z,39.42
2019-03-31T13:07:30.263Z,39.42
2019-03-31T13:09:58.642Z,39.22
2019-03-31T13:12:27.022Z,39.13
2019-03-31T13:14:55.419Z,39.01
2019-03-31T13:17:23.776Z,39.10
2019-03-31T13:19:52.163Z,39.12
2019-03-31T13:22:20.537Z,39.17
2019-03-31T13:24:48.924Z,39.35
2019-03-31T13:27:17.290Z,39.06
2019-03-31T13:29:45.668Z,39.21
2019-03-31T13:32:14.036Z,39.29
2019-03-31T13:34:42.420Z,39.29
2019-03-31T13:37:11.652Z,39.28
2019-03-31T13:39:40.025Z,39.38
2019-03-31T13:42:08.391Z,39.43
2019-03-31T13:44:37.757Z,39.56
2019-03-31T13:47:06.109Z,39.68
2019-03-31T13:49:34.493Z,39.50
2019-03-31T13:52:02.856Z,39.85
2019-03-31T13:54:31.235Z,39.51
2019-03-31T13:56:59.879Z,39.78
2019-03-31T13:59:28.371Z,40.03
2019-03-31T14:02:00.052Z,40.17
2019-03-31T14:04:26.840Z,40.32
2019-03-31T14:06:55.217Z,40.62
2019-03-31T14:09:23.597Z,40.65
2019-03-31T14:11:51.968Z,40.75
2019-03-31T14:14:20.347Z,40.95
2019-03-31T14:16:48.853Z,41.14
2019-03-31T14:19:17.234Z,41.26
2019-03-31T14:21:45.616Z,41.47
2019-03-31T14:24:14.053Z,41.39
2019-03-31T14:26:42.362Z,41.45
2019-03-31T14:29:10.733Z,41.52
2019-03-31T14:31:39.104Z,41.65
2019-03-31T14:34:07.469Z,41.51
2019-03-31T14:36:35.843Z,41.39
2019-03-31T14:39:07.119Z,41.41
2019-03-31T14:41:35.483Z,41.56
2019-03-31T14:44:04.029Z,41.51
2019-03-31T14:46:32.421Z,41.63
2019-03-31T14:49:00.850Z,41.67
2019-03-31T14:51:29.180Z,41.83
2019-03-31T14:53:57.541Z,41.99
2019-03-31T14:56:25.918Z,42.05
2019-03-31T14:58:54.291Z,41.97
2019-03-31T15:01:22.672Z,42.07
2019-03-31T15:03:51.036Z,42.04
2019-03-31T15:06:19.425Z,42.15
2019-03-31T15:08:54.170Z,42.31
2019-03-31T15:11:17.897Z,42.28
2019-03-31T15:13:46.260Z,42.39
2019-03-31T15:16:14.644Z,42.51
2019-03-31T15:18:43.010Z,42.49
2019-03-31T15:21:11.460Z,42.53
2019-03-31T15:23:39.778Z,42.47
2019-03-31T15:26:08.161Z,42.28
2019-03-31T15:28:36.805Z,42.32
2019-03-31T15:31:05.185Z,42.50
2019-03-31T15:33:33.559Z,42.55
2019-03-31T15:36:02.010Z,42.40
2019-03-31T15:38:30.379Z,42.70
2019-03-31T15:40:58.760Z,42.94
2019-03-31T15:43:27.123Z,42.78
2019-03-31T15:45:55.507Z,43.08
2019-03-31T15:48:23.881Z,43.31
2019-03-31T15:50:52.259Z,43.41
2019-03-31T15:53:20.648Z,43.33
2019-03-31T15:55:49.031Z,43.75
2019-03-31T15:58:17.418Z,43.25
2019-03-31T16:00:45.798Z,43.68
2019-03-31T16:03:14.183Z,44.49
2019-03-31T16:05:42.998Z,44.64
2019-03-31T16:08:11.384Z,44.50
2019-03-31T16:10:39.763Z,45.46
2019-03-31T16:13:08.145Z,46.30
2019-03-31T16:15:36.522Z,46.59
2019-03-31T16:18:05.072Z,47.02
2019-03-31T16:20:33.448Z,47.12
2019-03-31T16:23:01.830Z,46.43
2019-03-31T16:25:32.742Z,46.78
2019-03-31T16:28:01.132Z,46.62
2019-03-31T16:30:29.781Z,46.37
2019-03-31T16:32:58.168Z,46.28
2019-03-31T16:35:26.544Z,46.47
2019-03-31T16:37:54.925Z,46.47
2019-03-31T16:40:23.296Z,46.63
2019-03-31T16:42:51.691Z,46.42
2019-03-31T16:45:20.064Z,46.46
2019-03-31T16:47:48.448Z,46.39
2019-03-31T16:50:16.893Z,45.97
2019-03-31T16:52:45.438Z,45.70
2019-03-31T16:55:13.878Z,46.01
2019-03-31T16:57:42.263Z,45.70
2019-03-31T17:00:10.967Z,45.93
2019-03-31T17:02:39.343Z,46.15
2019-03-31T17:05:21.133Z,46.41
2019-03-31T17:07:38.528Z,46.68
2019-03-31T17:10:07.950Z,46.96
2019-03-31T17:12:36.610Z,46.35
2019-03-31T17:15:08.574Z,46.28
2019-03-31T17:17:36.949Z,46.18
2019-03-31T17:20:06.581Z,46.23
2019-03-31T17:22:34.967Z,46.37
2019-03-31T17:25:04.201Z,46.46
2019-03-31T17:27:32.585Z,46.26
2019-03-31T17:30:00.957Z,45.58
2019-03-31T17:32:29.341Z,45.15
2019-03-31T17:34:57.750Z,45.15
2019-03-31T17:37:26.115Z,45.45
2019-03-31T17:40:05.448Z,45.18
2019-03-31T17:42:24.644Z,45.44
2019-03-31T17:44:53.021Z,45.59
2019-03-31T17:47:21.398Z,45.63
2019-03-31T17:49:49.800Z,46.17
2019-03-31T17:52:18.173Z,46.05
2019-03-31T17:54:46.571Z,45.94
2019-03-31T17:57:14.959Z,46.04
2019-03-31T17:59:43.742Z,45.98
2019-03-31T18:02:12.112Z,45.91
2019-03-31T18:04:40.625Z,45.95
2019-03-31T18:07:08.984Z,46.34
2019-03-31T18:09:37.357Z,45.91
2019-03-31T18:12:05.734Z,46.40
2019-03-31T18:14:34.108Z,45.87
2019-03-31T18:17:02.486Z,45.73
2019-03-31T18:19:30.850Z,45.46
2019-03-31T18:21:59.218Z,46.27
2019-03-31T18:24:27.597Z,46.19
2019-03-31T18:26:55.976Z,47.30
2019-03-31T18:29:24.417Z,47.87
2019-03-31T18:31:52.789Z,47.90
2019-03-31T18:34:21.166Z,48.25
2019-03-31T18:36:49.632Z,48.08
2019-03-31T18:39:18.006Z,47.92
2019-03-31T18:41:46.485Z,47.98
2019-03-31T18:44:14.855Z,47.73
2019-03-31T18:46:43.231Z,47.61
2019-03-31T18:49:11.607Z,47.18
2019-03-31T18:51:40.054Z,47.56
2019-03-31T18:54:19.069Z,47.67
2019-03-31T18:56:55.095Z,47.47
2019-03-31T18:59:25.096Z,47.44
2019-03-31T19:02:07.361Z,47.81
2019-03-31T19:04:53.940Z,47.60
2019-03-31T19:07:26.903Z,47.70
2019-03-31T19:10:02.340Z,47.83
2019-03-31T19:12:32.358Z,47.93
2019-03-31T19:15:20.273Z,47.81
2019-03-31T19:17:53.216Z,47.98
2019-03-31T19:20:41.683Z,48.04
2019-03-31T19:23:17.367Z,48.08
2019-03-31T19:25:47.464Z,48.20
2019-03-31T19:28:33.715Z,48.04
2019-03-31T19:31:06.129Z,47.76
2019-03-31T19:33:39.074Z,48.21
2019-03-31T19:36:17.876Z,48.10
2019-03-31T19:38:56.845Z,47.91
2019-03-31T19:41:32.631Z,48.08
2019-03-31T19:44:11.538Z,48.08
2019-03-31T19:46:44.509Z,48.36
2019-03-31T19:49:30.782Z,48.21
2019-03-31T19:52:00.807Z,47.89
2019-03-31T19:54:46.843Z,47.82
2019-03-31T19:57:22.730Z,48.11
2019-03-31T20:00:07.675Z,47.90
2019-03-31T20:02:43.544Z,48.33
2019-03-31T20:05:19.548Z,47.64
2019-03-31T20:07:55.761Z,47.59
2019-03-31T20:10:43.314Z,47.76
2019-03-31T20:13:32.277Z,47.96
2019-03-31T20:16:02.877Z,48.01
2019-03-31T20:18:49.581Z,48.09
2019-03-31T20:21:31.454Z,48.02
2019-03-31T20:23:55.572Z,47.58
2019-03-31T20:26:28.273Z,47.76
2019-03-31T20:28:58.290Z,47.26
2019-03-31T20:31:44.207Z,47.95
2019-03-31T20:34:18.644Z,48.09
2019-03-31T20:36:57.532Z,47.78
2019-03-31T20:39:39.634Z,47.88
2019-03-31T20:42:09.653Z,48.40
2019-03-31T20:44:38.027Z,48.17
2019-03-31T20:47:06.391Z,47.76
2019-03-31T20:49:34.771Z,48.49
2019-03-31T20:52:03.138Z,48.35
2019-03-31T20:54:33.215Z,48.30
2019-03-31T20:57:01.731Z,48.39
2019-03-31T20:59:30.136Z,48.78
2019-03-31T21:01:58.485Z,47.80
2019-03-31T21:04:26.881Z,48.20
2019-03-31T21:06:55.251Z,47.72
2019-03-31T21:09:23.664Z,47.53
2019-03-31T21:11:52.108Z,47.21
2019-03-31T21:14:20.504Z,46.85
2019-03-31T21:16:49.299Z,47.11
2019-03-31T21:19:19.289Z,47.06
2019-03-31T21:21:47.871Z,47.01
2019-03-31T21:24:16.286Z,47.00
2019-03-31T21:26:45.669Z,46.93
2019-03-31T21:29:14.046Z,47.01
2019-03-31T21:31:42.418Z,47.00
2019-03-31T21:34:10.870Z,46.77
2019-03-31T21:36:39.235Z,46.82
2019-03-31T21:39:08.149Z,46.73
2019-03-31T21:41:36.795Z,46.85
2019-03-31T21:44:05.542Z,46.75
2019-03-31T21:46:33.934Z,46.66
2019-03-31T21:49:02.430Z,46.73
2019-03-31T21:51:30.781Z,46.76
2019-03-31T21:53:59.168Z,46.62
2019-03-31T21:56:27.712Z,46.62
2019-03-31T21:58:56.202Z,46.59
2019-03-31T22:01:24.730Z,46.67
2019-03-31T22:03:53.123Z,46.11
2019-03-31T22:06:21.479Z,46.05
2019-03-31T22:08:49.852Z,46.10
2019-03-31T22:11:18.229Z,46.17
2019-03-31T22:13:46.653Z,46.12
2019-03-31T22:16:15.059Z,46.24
2019-03-31T22:18:43.428Z,46.24
2019-03-31T22:21:11.803Z,46.13
2019-03-31T22:23:40.176Z,46.25
2019-03-31T22:26:08.554Z,46.18
2019-03-31T22:28:37.068Z,46.22
2019-03-31T22:31:05.481Z,46.17
2019-03-31T22:33:33.853Z,46.24
2019-03-31T22:36:20.263Z,46.22
2019-03-31T22:38:49.481Z,46.08
2019-03-31T22:41:17.854Z,46.05
2019-03-31T22:43:46.973Z,46.15
2019-03-31T22:46:16.696Z,46.01
2019-03-31T22:48:45.123Z,46.00
2019-03-31T22:51:13.518Z,45.94
2019-03-31T22:53:41.883Z,45.98
2019-03-31T22:56:10.253Z,45.94
2019-03-31T22:58:38.629Z,45.94
2019-03-31T23:01:07.001Z,45.93
2019-03-31T23:03:35.364Z,45.92
2019-03-31T23:06:03.771Z,45.83
2019-03-31T23:08:32.132Z,45.92
2019-03-31T23:11:00.527Z,45.89
2019-03-31T23:13:28.877Z,45.89
2019-03-31T23:15:57.263Z,45.91
2019-03-31T23:18:25.648Z,45.86
2019-03-31T23:20:54.025Z,45.79
2019-03-31T23:23:22.399Z,45.76
2019-03-31T23:25:50.775Z,45.78
2019-03-31T23:28:19.149Z,45.68
2019-03-31T23:30:47.528Z,45.68
2019-03-31T23:33:16.690Z,45.71
2019-03-31T23:35:45.068Z,45.75
2019-03-31T23:38:13.440Z,45.83
2019-03-31T23:40:41.807Z,45.70
2019-03-31T23:43:10.187Z,45.67
2019-03-31T23:45:38.829Z,45.69
2019-03-31T23:48:07.212Z,45.84
2019-03-31T23:50:35.588Z,45.59
2019-03-31T23:53:03.962Z,45.46
2019-03-31T23:55:32.331Z,45.59
2019-03-31T23:58:00.702Z,45.61
